Terminal Aerodrome Forecast
Issued by NWS Lake Charles, LA

Home | Current Version | Previous Version | Text Only | Print | Product List | Glossary On
Versions: 1 2 3 4 5 6 7 8 9 10 11 12
106
FTUS44 KLCH 161124
TAFLFT
TAF
KLFT 161124Z 1612/1712 36010KT P6SM -RA BKN060 OVC100
     FM161400 01015G21KT P6SM -RA OVC010
     FM161800 01018G25KT P6SM -SNPL OVC007
     FM170100 36014G20KT P6SM OVC015
     FM170500 01012G18KT P6SM BKN050=

USA.gov is the U.S. government's official web portal to all federal, state and local government web resources and services.